createdAt,value
2023-04-08T00:00:10.017Z,101481.44
2023-04-08T00:02:37.495Z,101475.22
2023-04-08T00:05:05.356Z,101481.66
2023-04-08T00:07:32.619Z,101481.66
2023-04-08T00:09:59.846Z,101475.44
2023-04-08T00:12:27.019Z,101486.16
2023-04-08T00:14:54.206Z,101483.69
2023-04-08T00:17:21.493Z,101476.56
2023-04-08T00:19:48.677Z,101481.88
2023-04-08T00:22:15.904Z,101489.97
2023-04-08T00:24:43.100Z,101478.34
2023-04-08T00:27:10.292Z,101479.25
2023-04-08T00:29:37.529Z,101485.53
2023-04-08T00:32:04.840Z,101480.22
2023-04-08T00:34:32.020Z,101485.72
2023-04-08T00:36:59.326Z,101480.34
2023-04-08T00:39:26.577Z,101485.59
2023-04-08T00:41:53.743Z,101483.97
2023-04-08T00:44:21.407Z,101482.06
2023-04-08T00:46:48.665Z,101488.38
2023-04-08T00:49:16.456Z,101489.25
2023-04-08T00:51:43.621Z,101480.34
2023-04-08T00:54:10.824Z,101483.25
2023-04-08T00:56:38.404Z,101478.59
2023-04-08T00:59:06.066Z,101474.97
2023-04-08T01:02:26.339Z,101478.81
2023-04-08T01:05:06.212Z,101484.19
2023-04-08T01:07:35.981Z,101496.44
2023-04-08T01:10:24.864Z,101486.66
2023-04-08T01:12:53.496Z,101491.28
2023-04-08T01:15:21.251Z,101483.13
2023-04-08T01:17:50.258Z,101483.34
2023-04-08T01:20:17.421Z,101483.34
2023-04-08T01:22:54.851Z,101484.19
2023-04-08T01:25:32.307Z,101492.22
2023-04-08T01:28:02.088Z,101480.78
2023-04-08T01:30:30.690Z,101482.47
2023-04-08T01:32:58.811Z,101484.94
2023-04-08T01:35:26.332Z,101481.41
2023-04-08T01:37:54.773Z,101486.13
2023-04-08T01:40:21.993Z,101487.22
2023-04-08T01:42:54.734Z,101484.63
2023-04-08T01:45:22.926Z,101487.00
2023-04-08T01:47:51.107Z,101497.72
2023-04-08T01:50:18.721Z,101496.97
2023-04-08T01:52:48.186Z,101498.78
2023-04-08T01:55:15.615Z,101498.56
2023-04-08T01:57:46.506Z,101497.59
2023-04-08T02:00:14.763Z,101499.53
2023-04-08T02:02:43.566Z,101503.94
2023-04-08T02:05:10.847Z,101503.09
2023-04-08T02:07:38.044Z,101501.38
2023-04-08T02:10:05.742Z,101501.47
2023-04-08T02:12:34.082Z,101501.69
2023-04-08T02:15:01.514Z,101507.91
2023-04-08T02:17:50.904Z,101515.84
2023-04-08T02:20:35.480Z,101511.44
2023-04-08T02:23:21.095Z,101517.56
2023-04-08T02:25:49.050Z,101518.53
2023-04-08T02:28:18.686Z,101507.16
2023-04-08T02:30:53.086Z,101503.28
2023-04-08T02:33:22.058Z,101495.47
2023-04-08T02:35:54.864Z,101502.44
2023-04-08T02:38:24.045Z,101501.38
2023-04-08T02:40:51.562Z,101508.66
2023-04-08T02:43:18.932Z,101514.09
2023-04-08T02:45:46.509Z,101524.97
2023-04-08T02:48:13.702Z,101526.66
2023-04-08T02:50:41.186Z,101532.88
2023-04-08T02:53:09.377Z,101535.56
2023-04-08T02:55:36.640Z,101532.16
2023-04-08T02:58:03.827Z,101527.50
2023-04-08T03:00:31.349Z,101529.47
2023-04-08T03:02:58.601Z,101536.53
2023-04-08T03:05:26.875Z,101541.03
2023-04-08T03:07:54.468Z,101533.00
2023-04-08T03:10:21.646Z,101531.19
2023-04-08T03:12:49.007Z,101536.75
2023-04-08T03:15:16.241Z,101537.50
2023-04-08T03:17:43.540Z,101534.81
2023-04-08T03:20:11.301Z,101538.25
2023-04-08T03:22:38.499Z,101539.34
2023-04-08T03:25:06.312Z,101540.91
2023-04-08T03:27:33.491Z,101546.75
2023-04-08T03:30:00.897Z,101547.47
2023-04-08T03:32:28.383Z,101544.78
2023-04-08T03:34:55.893Z,101545.56
2023-04-08T03:37:23.125Z,101544.78
2023-04-08T03:39:50.357Z,101548.31
2023-04-08T03:42:18.094Z,101550.06
2023-04-08T03:44:45.281Z,101543.72
2023-04-08T03:47:12.486Z,101550.91
2023-04-08T03:49:39.659Z,101552.84
2023-04-08T03:52:07.735Z,101554.53
2023-04-08T03:54:35.008Z,101554.53
2023-04-08T03:57:02.279Z,101555.50
2023-04-08T03:59:29.706Z,101556.50
2023-04-08T04:01:57.048Z,101556.50
2023-04-08T04:04:25.445Z,101555.63
2023-04-08T04:06:55.282Z,101566.22
2023-04-08T04:09:22.503Z,101562.59
2023-04-08T04:11:49.690Z,101569.91
2023-04-08T04:14:16.878Z,101573.44
2023-04-08T04:16:44.102Z,101578.78
2023-04-08T04:19:11.474Z,101578.16
2023-04-08T04:21:38.641Z,101585.00
2023-04-08T04:24:06.048Z,101580.63
2023-04-08T04:26:33.239Z,101583.19
2023-04-08T04:29:00.524Z,101595.00
2023-04-08T04:31:27.902Z,101601.09
2023-04-08T04:33:55.612Z,101602.06
2023-04-08T04:36:22.875Z,101602.16
2023-04-08T04:38:51.128Z,101595.72
2023-04-08T04:41:18.489Z,101594.22
2023-04-08T04:43:45.868Z,101596.91
2023-04-08T04:46:13.115Z,101603.97
2023-04-08T04:48:40.674Z,101599.59
2023-04-08T04:51:07.924Z,101611.16
2023-04-08T04:53:35.412Z,101616.53
2023-04-08T04:56:02.711Z,101617.59
2023-04-08T04:58:30.684Z,101617.59
2023-04-08T05:00:58.055Z,101619.34
2023-04-08T05:03:26.111Z,101611.38
2023-04-08T05:05:54.152Z,101616.84
2023-04-08T05:08:22.023Z,101619.34
2023-04-08T05:10:51.951Z,101613.19
2023-04-08T05:13:19.286Z,101623.16
2023-04-08T05:15:46.731Z,101624.78
2023-04-08T05:18:14.071Z,101638.09
2023-04-08T05:20:41.297Z,101632.81
2023-04-08T05:23:08.704Z,101635.63
2023-04-08T05:25:36.246Z,101643.66
2023-04-08T05:28:03.878Z,101645.38
2023-04-08T05:30:31.466Z,101643.53
2023-04-08T05:33:00.636Z,101651.59
2023-04-08T05:35:28.624Z,101650.53
2023-04-08T05:37:56.013Z,101654.19
2023-04-08T05:40:23.246Z,101659.75
2023-04-08T05:42:50.554Z,101657.91
2023-04-08T05:45:17.808Z,101658.97
2023-04-08T05:47:45.046Z,101655.31
2023-04-08T05:50:12.425Z,101663.47
2023-04-08T05:52:44.718Z,101663.28
2023-04-08T05:55:13.321Z,101665.84
2023-04-08T05:57:41.194Z,101660.69
2023-04-08T06:00:10.076Z,101661.66
2023-04-08T06:02:37.539Z,101673.16
2023-04-08T06:05:05.975Z,101678.38
2023-04-08T06:07:33.939Z,101678.38
2023-04-08T06:10:01.184Z,101683.66
2023-04-08T06:12:28.428Z,101676.56
2023-04-08T06:14:56.565Z,101678.38
2023-04-08T06:17:23.957Z,101689.03
2023-04-08T06:19:51.366Z,101687.28
2023-04-08T06:22:18.550Z,101698.00
2023-04-08T06:24:48.124Z,101701.66
2023-04-08T06:27:15.939Z,101704.44
2023-04-08T06:29:43.351Z,101700.91
2023-04-08T06:32:10.920Z,101700.03
2023-04-08T06:34:38.431Z,101699.06
2023-04-08T06:37:06.413Z,101702.63
2023-04-08T06:39:33.848Z,101702.72
2023-04-08T06:42:01.626Z,101706.38
2023-04-08T06:44:29.021Z,101712.59
2023-04-08T06:46:56.516Z,101709.91
2023-04-08T06:49:23.703Z,101725.03
2023-04-08T06:51:50.959Z,101724.16
2023-04-08T06:54:18.207Z,101727.69
2023-04-08T06:56:45.499Z,101730.50
2023-04-08T06:59:12.670Z,101734.03
2023-04-08T07:01:40.108Z,101739.41
2023-04-08T07:04:07.476Z,101742.94
2023-04-08T07:06:34.769Z,101745.63
2023-04-08T07:09:02.143Z,101748.22
2023-04-08T07:11:29.454Z,101750.13
2023-04-08T07:13:57.059Z,101739.41
2023-04-08T07:16:24.465Z,101746.59
2023-04-08T07:18:54.060Z,101747.44
2023-04-08T07:21:21.391Z,101749.16
2023-04-08T07:23:48.698Z,101758.03
2023-04-08T07:26:15.895Z,101752.59
2023-04-08T07:28:43.263Z,101760.66
2023-04-08T07:31:18.663Z,101754.44
2023-04-08T07:33:46.679Z,101753.38
2023-04-08T07:36:15.382Z,101759.66
2023-04-08T07:38:42.557Z,101766.97
2023-04-08T07:41:09.775Z,101763.31
2023-04-08T07:43:39.662Z,101758.94
2023-04-08T07:46:07.768Z,101766.78
2023-04-08T07:48:35.896Z,101762.28
2023-04-08T07:51:11.354Z,101773.28
2023-04-08T07:53:40.548Z,101769.66
2023-04-08T07:56:15.442Z,101766.00
2023-04-08T07:58:43.334Z,101777.69
2023-04-08T08:01:24.346Z,101779.50
2023-04-08T08:03:53.232Z,101786.69
2023-04-08T08:06:22.117Z,101780.25
2023-04-08T08:08:49.439Z,101785.63
2023-04-08T08:11:16.635Z,101782.09
2023-04-08T08:13:43.881Z,101794.53
2023-04-08T08:16:12.038Z,101797.19
2023-04-08T08:18:40.462Z,101791.09
2023-04-08T08:21:08.865Z,101795.84
2023-04-08T08:23:36.099Z,101799.47
2023-04-08T08:26:07.726Z,101795.47
2023-04-08T08:28:35.264Z,101802.06
2023-04-08T08:31:03.504Z,101797.28
2023-04-08T08:33:30.895Z,101798.41
2023-04-08T08:35:58.567Z,101802.06
2023-04-08T08:38:26.325Z,101808.09
2023-04-08T08:40:57.169Z,101802.25
2023-04-08T08:43:27.975Z,101805.13
2023-04-08T08:45:55.794Z,101804.34
2023-04-08T08:48:23.054Z,101812.59
2023-04-08T08:50:50.424Z,101810.88
2023-04-08T08:53:18.032Z,101822.56
2023-04-08T08:56:13.709Z,101812.22
2023-04-08T08:58:32.725Z,101812.41
2023-04-08T09:00:59.981Z,101822.28
2023-04-08T09:03:28.757Z,101825.00
2023-04-08T09:05:56.946Z,101826.78
2023-04-08T09:08:31.880Z,101835.91
2023-04-08T09:11:15.101Z,101838.69
2023-04-08T09:13:42.660Z,101836.09
2023-04-08T09:16:14.080Z,101843.88
2023-04-08T09:18:44.507Z,101846.44
2023-04-08T09:21:13.216Z,101843.59
2023-04-08T09:23:45.404Z,101841.56
2023-04-08T09:26:14.418Z,101849.72
2023-04-08T09:28:42.471Z,101855.09
2023-04-08T09:31:21.381Z,101851.44
2023-04-08T09:33:50.297Z,101856.78
2023-04-08T09:36:18.157Z,101856.97
2023-04-08T09:38:45.633Z,101870.84
2023-04-08T09:41:17.766Z,101860.44
2023-04-08T09:43:52.636Z,101860.63
2023-04-08T09:46:27.176Z,101864.66
2023-04-08T09:49:02.688Z,101858.97
2023-04-08T09:51:34.746Z,101863.28
2023-04-08T09:54:03.822Z,101868.84
2023-04-08T09:56:31.791Z,101866.47
2023-04-08T09:59:03.382Z,101864.72
2023-04-08T10:01:40.284Z,101867.50
2023-04-08T10:04:12.612Z,101876.63
2023-04-08T10:06:41.473Z,101869.13
2023-04-08T10:09:10.091Z,101872.09
2023-04-08T10:11:37.484Z,101879.75
2023-04-08T10:14:04.846Z,101874.19
2023-04-08T10:16:32.203Z,101872.31
2023-04-08T10:18:59.826Z,101872.09
2023-04-08T10:21:41.237Z,101869.97
2023-04-08T10:24:11.982Z,101873.72
2023-04-08T10:26:48.881Z,101873.84
2023-04-08T10:29:18.920Z,101880.28
2023-04-08T10:31:47.476Z,101875.84
2023-04-08T10:34:26.354Z,101875.19
2023-04-08T10:36:55.781Z,101868.41
2023-04-08T10:39:24.697Z,101869.69
2023-04-08T10:41:52.544Z,101871.53
2023-04-08T10:44:21.580Z,101868.09
2023-04-08T10:46:49.916Z,101871.72
2023-04-08T10:49:19.963Z,101876.50
2023-04-08T10:51:47.892Z,101880.22
2023-04-08T10:54:17.336Z,101880.81
2023-04-08T10:56:49.510Z,101879.66
2023-04-08T10:59:19.225Z,101873.81
2023-04-08T11:01:47.357Z,101871.19
2023-04-08T11:04:19.490Z,101871.19
2023-04-08T11:06:47.556Z,101871.88
2023-04-08T11:09:16.423Z,101876.75
2023-04-08T11:11:44.748Z,101874.94
2023-04-08T11:14:12.323Z,101871.19
2023-04-08T11:16:39.958Z,101876.34
2023-04-08T11:19:08.051Z,101873.69
2023-04-08T11:21:38.775Z,101873.75
2023-04-08T11:24:13.330Z,101880.47
2023-04-08T11:26:41.659Z,101874.59
2023-04-08T11:29:14.283Z,101875.81
2023-04-08T11:31:42.671Z,101873.34
2023-04-08T11:34:10.090Z,101877.38
2023-04-08T11:36:40.253Z,101874.91
2023-04-08T11:39:09.290Z,101891.19
2023-04-08T11:41:37.832Z,101885.47
2023-04-08T11:44:07.034Z,101878.38
2023-04-08T11:46:35.403Z,101889.31
2023-04-08T11:49:07.980Z,101878.28
2023-04-08T11:51:38.821Z,101877.53
2023-04-08T11:54:09.163Z,101879.31
2023-04-08T11:56:47.093Z,101876.63
2023-04-08T11:59:14.590Z,101867.66
2023-04-08T12:01:41.876Z,101876.38
2023-04-08T12:04:10.949Z,101876.25
2023-04-08T12:06:38.319Z,101878.72
2023-04-08T12:09:05.559Z,101870.00
2023-04-08T12:11:33.447Z,101874.50
2023-04-08T12:14:00.708Z,101872.94
2023-04-08T12:16:28.180Z,101876.75
2023-04-08T12:18:55.576Z,101873.13
2023-04-08T12:21:22.956Z,101875.25
2023-04-08T12:23:50.461Z,101869.88
2023-04-08T12:26:18.249Z,101869.47
2023-04-08T12:28:45.940Z,101873.13
2023-04-08T12:31:13.395Z,101879.75
2023-04-08T12:33:41.059Z,101873.63
2023-04-08T12:36:08.472Z,101877.06
2023-04-08T12:38:35.885Z,101881.19
2023-04-08T12:41:03.083Z,101877.84
2023-04-08T12:43:32.669Z,101879.75
2023-04-08T12:45:59.928Z,101881.06
2023-04-08T12:48:28.153Z,101872.16
2023-04-08T12:50:56.367Z,101874.19
2023-04-08T12:53:24.596Z,101870.19
2023-04-08T12:55:52.255Z,101865.13
2023-04-08T12:58:21.410Z,101870.28
2023-04-08T13:00:49.722Z,101861.09
2023-04-08T13:03:17.932Z,101863.09
2023-04-08T13:05:45.389Z,101863.19
2023-04-08T13:08:12.608Z,101861.28
2023-04-08T13:10:39.956Z,101856.88
2023-04-08T13:13:07.146Z,101858.69
2023-04-08T13:15:34.469Z,101844.50
2023-04-08T13:18:02.007Z,101850.56
2023-04-08T13:20:29.311Z,101848.81
2023-04-08T13:22:59.250Z,101845.47
2023-04-08T13:25:26.553Z,101841.94
2023-04-08T13:27:53.927Z,101841.94
2023-04-08T13:30:21.092Z,101839.25
2023-04-08T13:32:48.470Z,101851.69
2023-04-08T13:35:15.718Z,101847.41
2023-04-08T13:37:42.956Z,101854.59
2023-04-08T13:40:10.537Z,101857.47
2023-04-08T13:42:37.816Z,101852.88
2023-04-08T13:45:05.292Z,101845.88
2023-04-08T13:47:32.581Z,101846.00
2023-04-08T13:49:59.912Z,101851.25
2023-04-08T13:52:27.494Z,101850.38
2023-04-08T13:54:54.663Z,101840.22
2023-04-08T13:57:21.878Z,101847.19
2023-04-08T13:59:49.096Z,101843.56
2023-04-08T14:02:16.330Z,101845.47
2023-04-08T14:04:46.700Z,101848.16
2023-04-08T14:07:14.466Z,101843.84
2023-04-08T14:09:41.647Z,101843.84
2023-04-08T14:12:08.850Z,101842.03
2023-04-08T14:14:36.145Z,101838.19
2023-04-08T14:17:03.440Z,101843.84
2023-04-08T14:19:30.840Z,101839.06
2023-04-08T14:21:58.033Z,101844.31
2023-04-08T14:24:25.265Z,101835.41
2023-04-08T14:26:52.458Z,101835.41
2023-04-08T14:29:19.721Z,101837.16
2023-04-08T14:31:46.911Z,101820.06
2023-04-08T14:34:14.174Z,101832.53
2023-04-08T14:36:41.367Z,101826.22
2023-04-08T14:39:08.562Z,101830.59
2023-04-08T14:41:35.773Z,101835.00
2023-04-08T14:44:04.269Z,101834.03
2023-04-08T14:46:31.730Z,101830.59
2023-04-08T14:48:59.134Z,101832.44
2023-04-08T14:51:26.415Z,101833.28
2023-04-08T14:53:53.629Z,101832.53
2023-04-08T14:56:21.143Z,101835.19
2023-04-08T14:58:48.523Z,101829.09
2023-04-08T15:01:18.414Z,101836.19
2023-04-08T15:03:47.360Z,101825.44
2023-04-08T15:06:17.568Z,101836.19
2023-04-08T15:08:45.846Z,101830.81
2023-04-08T15:11:13.215Z,101830.81
2023-04-08T15:13:40.653Z,101835.19
2023-04-08T15:16:07.878Z,101826.94
2023-04-08T15:18:36.233Z,101828.66
2023-04-08T15:21:03.567Z,101825.13
2023-04-08T15:23:30.970Z,101834.91
2023-04-08T15:25:58.228Z,101835.78
2023-04-08T15:28:27.254Z,101832.97
2023-04-08T15:30:54.478Z,101837.47
2023-04-08T15:33:21.710Z,101836.50
2023-04-08T15:35:49.526Z,101818.69
2023-04-08T15:38:17.465Z,101832.97
2023-04-08T15:40:46.759Z,101830.09
2023-04-08T15:43:15.237Z,101830.19
2023-04-08T15:45:46.562Z,101835.44
2023-04-08T15:48:13.828Z,101830.19
2023-04-08T15:50:41.758Z,101827.50
2023-04-08T15:53:09.249Z,101843.81
2023-04-08T15:55:42.655Z,101834.03
2023-04-08T15:58:12.245Z,101834.03
2023-04-08T16:00:40.003Z,101830.50
2023-04-08T16:03:08.997Z,101836.94
2023-04-08T16:05:36.366Z,101829.75
2023-04-08T16:08:04.632Z,101830.59
2023-04-08T16:10:31.893Z,101833.16
2023-04-08T16:12:59.057Z,101837.69
2023-04-08T16:15:26.694Z,101841.13
2023-04-08T16:17:54.085Z,101852.81
2023-04-08T16:20:21.661Z,101844.75
2023-04-08T16:22:50.177Z,101846.59
2023-04-08T16:25:17.533Z,101852.06
2023-04-08T16:27:44.809Z,101855.72
2023-04-08T16:30:12.023Z,101853.97
2023-04-08T16:32:39.581Z,101848.72
2023-04-08T16:35:06.888Z,101862.22
2023-04-08T16:37:34.686Z,101853.25
2023-04-08T16:40:03.151Z,101858.69
2023-04-08T16:42:30.555Z,101859.56
2023-04-08T16:44:58.020Z,101863.19
2023-04-08T16:47:25.521Z,101871.25
2023-04-08T16:49:56.020Z,101864.91
2023-04-08T16:52:23.393Z,101862.34
2023-04-08T16:54:50.557Z,101864.19
2023-04-08T16:57:18.131Z,101873.94
2023-04-08T16:59:45.283Z,101877.59
2023-04-08T17:02:12.521Z,101876.69
2023-04-08T17:04:40.736Z,101883.91
2023-04-08T17:07:08.359Z,101884.00
2023-04-08T17:09:35.950Z,101894.75
2023-04-08T17:12:03.169Z,101898.28
2023-04-08T17:14:30.736Z,101901.03
2023-04-08T17:16:58.067Z,101904.69
2023-04-08T17:19:25.552Z,101913.72
2023-04-08T17:21:52.682Z,101918.13
2023-04-08T17:24:19.861Z,101913.81
2023-04-08T17:26:47.928Z,101921.84
2023-04-08T17:29:15.062Z,101930.00
2023-04-08T17:31:42.204Z,101938.06
2023-04-08T17:34:09.366Z,101939.97
2023-04-08T17:36:36.531Z,101948.88
2023-04-08T17:39:03.655Z,101954.16
2023-04-08T17:41:39.667Z,101955.19
2023-04-08T17:44:07.815Z,101968.72
2023-04-08T17:46:35.285Z,101966.91
2023-04-08T17:49:02.485Z,101979.53
2023-04-08T17:51:30.246Z,101984.91
2023-04-08T17:53:57.423Z,101986.72
2023-04-08T17:56:24.791Z,101990.19
2023-04-08T17:58:51.980Z,101998.31
2023-04-08T18:01:19.608Z,102007.31
2023-04-08T18:03:46.924Z,102002.03
2023-04-08T18:06:14.266Z,102011.91
2023-04-08T18:08:41.389Z,102020.97
2023-04-08T18:11:08.503Z,102022.75
2023-04-08T18:13:35.639Z,102027.25
2023-04-08T18:16:02.824Z,102033.63
2023-04-08T18:18:30.140Z,102043.50
2023-04-08T18:20:57.290Z,102037.25
2023-04-08T18:23:24.420Z,102048.16
2023-04-08T18:25:51.647Z,102042.72
2023-04-08T18:28:18.766Z,102050.78
2023-04-08T18:30:50.223Z,102051.81
2023-04-08T18:33:17.463Z,102058.91
2023-04-08T18:35:44.638Z,102055.47
2023-04-08T18:38:11.775Z,102065.34
2023-04-08T18:40:39.140Z,102075.22
2023-04-08T18:43:06.368Z,102078.81
2023-04-08T18:45:33.611Z,102082.34
2023-04-08T18:48:00.875Z,102081.63
2023-04-08T18:50:28.118Z,102084.28
2023-04-08T18:52:55.369Z,102089.53
2023-04-08T18:55:22.549Z,102092.34
2023-04-08T18:57:50.593Z,102084.38
2023-04-08T19:00:17.746Z,102086.19
2023-04-08T19:02:45.106Z,102085.22
2023-04-08T19:05:12.349Z,102088.88
2023-04-08T19:07:39.493Z,102085.41
2023-04-08T19:10:06.864Z,102088.19
2023-04-08T19:12:34.127Z,102090.78
2023-04-08T19:15:03.767Z,102093.47
2023-04-08T19:17:31.141Z,102105.16
2023-04-08T19:19:58.761Z,102105.16
2023-04-08T19:22:26.049Z,102099.91
2023-04-08T19:24:54.948Z,102097.09
2023-04-08T19:27:22.335Z,102099.03
2023-04-08T19:29:49.927Z,102099.97
2023-04-08T19:32:17.370Z,102089.25
2023-04-08T19:34:44.531Z,102095.47
2023-04-08T19:37:11.683Z,102101.78
2023-04-08T19:39:38.827Z,102103.63
2023-04-08T19:42:06.283Z,102098.25
2023-04-08T19:44:33.487Z,102099.78
2023-04-08T19:47:00.743Z,102097.28
2023-04-08T19:49:27.875Z,102100.94
2023-04-08T19:51:55.816Z,102098.44
2023-04-08T19:54:22.998Z,102097.47
2023-04-08T19:56:50.185Z,102093.94
2023-04-08T19:59:17.406Z,102101.97
2023-04-08T20:01:44.587Z,102102.09
2023-04-08T20:04:11.875Z,102107.44
2023-04-08T20:06:39.179Z,102106.47
2023-04-08T20:09:06.351Z,102109.16
2023-04-08T20:11:33.789Z,102106.56
2023-04-08T20:14:01.439Z,102102.94
2023-04-08T20:16:28.723Z,102098.63
2023-04-08T20:18:56.383Z,102103.00
2023-04-08T20:21:23.612Z,102105.69
2023-04-08T20:23:50.737Z,102102.25
2023-04-08T20:26:17.878Z,102108.50
2023-04-08T20:28:46.083Z,102103.19
2023-04-08T20:31:13.426Z,102108.56
2023-04-08T20:33:44.220Z,102106.84
2023-04-08T20:36:12.323Z,102106.75
2023-04-08T20:38:40.514Z,102105.88
2023-04-08T20:41:07.707Z,102113.84
2023-04-08T20:43:34.845Z,102106.75
2023-04-08T20:46:02.001Z,102110.50
2023-04-08T20:48:29.499Z,102109.53
2023-04-08T20:50:57.513Z,102109.53
2023-04-08T20:53:26.313Z,102118.53
2023-04-08T20:55:53.492Z,102113.25
2023-04-08T20:58:20.818Z,102115.94
2023-04-08T21:00:48.039Z,102111.41
2023-04-08T21:03:15.295Z,102116.03
2023-04-08T21:05:45.316Z,102116.88
2023-04-08T21:08:12.451Z,102112.38
2023-04-08T21:10:39.564Z,102109.72
2023-04-08T21:13:06.740Z,102116.97
2023-04-08T21:15:33.863Z,102115.19
2023-04-08T21:18:01.077Z,102116.22
2023-04-08T21:20:28.226Z,102109.88
2023-04-08T21:22:55.402Z,102117.94
2023-04-08T21:25:22.722Z,102116.97
2023-04-08T21:27:49.894Z,102118.91
2023-04-08T21:30:17.863Z,102110.75
2023-04-08T21:32:45.060Z,102120.59
2023-04-08T21:35:12.174Z,102122.50
2023-04-08T21:37:39.394Z,102123.47
2023-04-08T21:40:07.135Z,102121.66
2023-04-08T21:42:34.306Z,102114.47
2023-04-08T21:45:01.408Z,102125.28
2023-04-08T21:47:28.617Z,102123.66
2023-04-08T21:49:55.957Z,102127.28
2023-04-08T21:52:23.233Z,102115.59
2023-04-08T21:54:51.439Z,102120.91
2023-04-08T21:57:18.598Z,102118.28
2023-04-08T21:59:45.828Z,102116.56
2023-04-08T22:02:13.112Z,102123.56
2023-04-08T22:04:40.631Z,102119.25
2023-04-08T22:07:07.825Z,102116.66
2023-04-08T22:09:34.949Z,102119.31
2023-04-08T22:12:02.149Z,102120.09
2023-04-08T22:14:29.335Z,102113.03
2023-04-08T22:16:56.655Z,102123.94
2023-04-08T22:19:23.932Z,102117.72
2023-04-08T22:21:51.153Z,102118.56
2023-04-08T22:24:18.604Z,102115.78
2023-04-08T22:26:45.718Z,102113.22
2023-04-08T22:29:12.918Z,102114.16
2023-04-08T22:31:40.350Z,102110.53
2023-04-08T22:34:07.496Z,102107.00
2023-04-08T22:36:34.660Z,102105.25
2023-04-08T22:39:01.777Z,102110.72
2023-04-08T22:41:28.894Z,102109.84
2023-04-08T22:43:56.145Z,102113.41
2023-04-08T22:46:23.449Z,102107.25
2023-04-08T22:48:50.896Z,102106.28
2023-04-08T22:51:18.310Z,102106.38
2023-04-08T22:53:45.483Z,102105.44
2023-04-08T22:56:12.664Z,102099.22
2023-04-08T22:58:39.807Z,102103.72
2023-04-08T23:01:10.975Z,102107.53
2023-04-08T23:03:38.172Z,102105.59
2023-04-08T23:06:05.607Z,102102.84
2023-04-08T23:08:32.705Z,102102.06
2023-04-08T23:10:59.838Z,102107.19
2023-04-08T23:13:27.263Z,102098.34
2023-04-08T23:15:54.411Z,102107.53
2023-04-08T23:18:21.594Z,102101.31
2023-04-08T23:20:52.721Z,102096.03
2023-04-08T23:23:20.224Z,102101.38
2023-04-08T23:25:47.671Z,102097.56
2023-04-08T23:28:14.783Z,102095.06
2023-04-08T23:30:42.077Z,102091.53
2023-04-08T23:33:09.232Z,102093.34
2023-04-08T23:35:36.360Z,102094.22
2023-04-08T23:38:03.505Z,102094.38
2023-04-08T23:40:30.626Z,102093.53
2023-04-08T23:42:57.746Z,102094.31
2023-04-08T23:45:24.868Z,102095.16
2023-04-08T23:47:52.050Z,102102.44
2023-04-08T23:50:20.273Z,102104.06
2023-04-08T23:52:47.452Z,102095.41
2023-04-08T23:55:14.570Z,102097.06
2023-04-08T23:57:42.556Z,102100.72
